createdAt,value
2023-02-28T00:00:50.286Z,18.70
2023-02-28T00:03:21.858Z,14.33
2023-02-28T00:05:53.605Z,16.12
2023-02-28T00:08:25.132Z,12.73
2023-02-28T00:10:56.683Z,13.95
2023-02-28T00:13:28.168Z,11.22
2023-02-28T00:16:03.911Z,12.53
2023-02-28T00:18:35.558Z,10.53
2023-02-28T00:21:07.553Z,11.00
2023-02-28T00:23:39.373Z,10.68
2023-02-28T00:26:10.827Z,16.10
2023-02-28T00:28:42.671Z,10.98
2023-02-28T00:31:14.437Z,12.82
2023-02-28T00:33:46.109Z,12.07
2023-02-28T00:36:17.891Z,11.83
2023-02-28T00:38:49.512Z,13.55
2023-02-28T00:41:20.969Z,11.75
2023-02-28T00:43:52.494Z,12.03
2023-02-28T00:46:23.966Z,15.63
2023-02-28T00:48:55.454Z,14.28
2023-02-28T00:51:27.317Z,11.12
2023-02-28T00:53:59.007Z,13.10
2023-02-28T00:56:31.054Z,12.90
2023-02-28T00:59:02.562Z,13.48
2023-02-28T01:01:34.503Z,12.93
2023-02-28T01:04:06.580Z,12.45
2023-02-28T01:06:38.536Z,16.82
2023-02-28T01:09:10.598Z,13.65
2023-02-28T01:11:44.950Z,11.28
2023-02-28T01:14:18.759Z,12.30
2023-02-28T01:16:50.232Z,13.15
2023-02-28T01:19:21.720Z,12.73
2023-02-28T01:21:53.576Z,13.50
2023-02-28T01:24:25.053Z,14.30
2023-02-28T01:26:56.422Z,10.48
2023-02-28T01:29:27.964Z,11.03
2023-02-28T01:32:00.396Z,9.10
2023-02-28T01:34:31.843Z,11.00
2023-02-28T01:37:04.662Z,12.60
2023-02-28T01:39:36.205Z,15.72
2023-02-28T01:42:07.753Z,11.88
2023-02-28T01:45:02.204Z,13.35
2023-02-28T01:47:37.017Z,12.85
2023-02-28T01:50:12.427Z,10.63
2023-02-28T01:52:45.137Z,10.25
2023-02-28T01:55:19.120Z,18.57
2023-02-28T01:57:53.452Z,16.60
2023-02-28T02:00:28.350Z,11.33
2023-02-28T02:03:02.714Z,11.55
2023-02-28T02:05:35.800Z,14.53
2023-02-28T02:08:09.552Z,11.00
2023-02-28T02:10:45.297Z,14.35
2023-02-28T02:16:56.754Z,12.78
2023-02-28T02:19:47.904Z,13.10
2023-02-28T02:22:36.410Z,11.20
2023-02-28T02:25:19.323Z,12.45
2023-02-28T02:31:17.588Z,14.65
2023-02-28T02:34:23.971Z,13.15
2023-02-28T02:36:58.773Z,11.97
2023-02-28T02:39:34.029Z,12.75
2023-02-28T02:42:08.490Z,12.00
2023-02-28T02:44:44.571Z,12.60
2023-02-28T02:47:19.063Z,11.83
2023-02-28T02:49:54.467Z,11.03
2023-02-28T02:52:29.076Z,11.75
2023-02-28T02:55:02.120Z,10.15
2023-02-28T02:57:36.935Z,15.23
2023-02-28T03:00:12.990Z,13.48
2023-02-28T03:02:44.643Z,13.70
2023-02-28T03:05:19.533Z,14.75
2023-02-28T03:07:51.136Z,15.75
2023-02-28T03:10:41.424Z,14.35
2023-02-28T03:13:34.334Z,14.90
2023-02-28T03:16:31.748Z,16.95
2023-02-28T03:19:16.067Z,13.70
2023-02-28T03:21:50.817Z,14.28
2023-02-28T03:24:25.779Z,13.98
2023-02-28T03:27:01.475Z,14.93
2023-02-28T03:29:36.260Z,15.70
2023-02-28T03:32:14.512Z,16.27
2023-02-28T03:34:49.521Z,17.45
2023-02-28T03:37:23.879Z,19.37
2023-02-28T03:39:59.120Z,14.65
2023-02-28T03:42:33.354Z,14.18
2023-02-28T03:45:08.912Z,19.30
2023-02-28T03:47:44.485Z,19.10
2023-02-28T03:50:19.054Z,15.28
2023-02-28T03:52:53.161Z,14.25
2023-02-28T03:55:24.937Z,19.52
2023-02-28T03:58:00.746Z,14.00
2023-02-28T04:00:35.271Z,15.68
2023-02-28T04:05:56.365Z,15.70
2023-02-28T04:08:27.815Z,14.40
2023-02-28T04:11:02.560Z,14.18
2023-02-28T04:13:34.262Z,15.78
2023-02-28T04:16:18.737Z,14.78
2023-02-28T04:18:45.657Z,12.65
2023-02-28T04:21:18.879Z,14.58
2023-02-28T04:23:50.560Z,20.27
2023-02-28T04:26:22.129Z,17.82
2023-02-28T04:28:53.546Z,17.30
2023-02-28T04:31:25.154Z,17.23
2023-02-28T04:33:56.777Z,14.20
2023-02-28T04:36:29.001Z,18.55
2023-02-28T04:39:00.615Z,13.00
2023-02-28T04:41:33.059Z,14.73
2023-02-28T04:44:05.193Z,15.15
2023-02-28T04:46:36.824Z,18.37
2023-02-28T04:49:08.328Z,14.63
2023-02-28T04:51:39.880Z,18.30
2023-02-28T04:54:11.673Z,14.70
2023-02-28T04:56:43.173Z,15.32
2023-02-28T04:59:14.711Z,15.58
2023-02-28T05:01:48.906Z,22.42
2023-02-28T05:04:20.450Z,22.75
2023-02-28T05:06:52.031Z,16.73
2023-02-28T05:09:24.154Z,17.65
2023-02-28T05:11:55.662Z,14.07
2023-02-28T05:14:27.820Z,20.10
2023-02-28T05:17:03.219Z,18.57
2023-02-28T05:19:35.016Z,18.37
2023-02-28T05:22:06.785Z,13.13
2023-02-28T05:24:43.861Z,13.72
2023-02-28T05:27:15.594Z,13.98
2023-02-28T05:29:47.167Z,16.73
2023-02-28T05:32:18.818Z,14.98
2023-02-28T05:34:50.404Z,19.52
2023-02-28T05:37:22.762Z,21.77
2023-02-28T05:39:54.526Z,13.50
2023-02-28T05:42:26.358Z,16.55
2023-02-28T05:44:57.918Z,18.57
2023-02-28T05:47:29.428Z,15.10
2023-02-28T05:50:01.615Z,16.50
2023-02-28T05:52:34.744Z,14.25
2023-02-28T05:55:07.337Z,17.23
2023-02-28T05:57:38.997Z,14.85
2023-02-28T06:00:13.187Z,15.72
2023-02-28T06:02:44.869Z,14.33
2023-02-28T06:05:18.402Z,18.92
2023-02-28T06:07:49.925Z,17.15
2023-02-28T06:10:21.655Z,15.78
2023-02-28T06:12:53.111Z,13.10
2023-02-28T06:15:24.897Z,16.62
2023-02-28T06:17:57.360Z,19.77
2023-02-28T06:20:30.856Z,14.07
2023-02-28T06:23:02.459Z,18.40
2023-02-28T06:25:34.005Z,15.38
2023-02-28T06:28:05.878Z,15.58
2023-02-28T06:30:38.550Z,17.25
2023-02-28T06:33:09.963Z,16.82
2023-02-28T06:35:41.643Z,20.72
2023-02-28T06:38:13.131Z,14.23
2023-02-28T06:40:45.108Z,16.55
2023-02-28T06:43:16.638Z,15.18
2023-02-28T06:45:48.233Z,18.85
2023-02-28T06:48:19.891Z,19.85
2023-02-28T06:50:51.825Z,17.95
2023-02-28T06:53:23.255Z,16.45
2023-02-28T06:55:54.822Z,14.43
2023-02-28T06:58:26.572Z,16.07
2023-02-28T07:00:58.232Z,12.10
2023-02-28T07:03:29.919Z,16.52
2023-02-28T07:06:02.097Z,13.83
2023-02-28T07:08:34.250Z,13.28
2023-02-28T07:11:06.411Z,13.43
2023-02-28T07:13:38.031Z,14.95
2023-02-28T07:16:12.849Z,15.90
2023-02-28T07:18:45.022Z,20.75
2023-02-28T07:21:16.990Z,23.75
2023-02-28T07:23:48.347Z,19.85
2023-02-28T07:26:21.965Z,111.32
2023-02-28T07:28:53.926Z,30.72
2023-02-28T07:31:25.569Z,17.00
2023-02-28T07:33:57.461Z,19.42
2023-02-28T07:36:28.988Z,19.70
2023-02-28T07:39:02.196Z,20.10
2023-02-28T07:41:35.229Z,16.70
2023-02-28T07:44:06.999Z,14.90
2023-02-28T07:46:38.521Z,16.17
2023-02-28T07:49:10.103Z,12.73
2023-02-28T07:51:41.557Z,24.27
2023-02-28T07:54:12.971Z,12.35
2023-02-28T07:56:44.399Z,15.63
2023-02-28T07:59:16.383Z,13.58
2023-02-28T08:01:47.933Z,12.85
2023-02-28T08:04:19.508Z,13.05
2023-02-28T08:06:52.618Z,16.82
2023-02-28T08:09:23.984Z,15.18
2023-02-28T08:11:55.446Z,15.55
2023-02-28T08:14:27.038Z,14.65
2023-02-28T08:16:58.490Z,13.65
2023-02-28T08:19:30.322Z,16.73
2023-02-28T08:22:02.438Z,14.80
2023-02-28T08:24:34.361Z,15.68
2023-02-28T08:27:05.889Z,19.70
2023-02-28T08:29:39.476Z,16.02
2023-02-28T08:32:27.228Z,14.75
2023-02-28T08:34:44.475Z,13.48
2023-02-28T08:37:16.691Z,14.35
2023-02-28T08:39:48.191Z,19.27
2023-02-28T08:42:19.961Z,18.25
2023-02-28T08:44:51.503Z,15.45
2023-02-28T08:47:23.139Z,15.30
2023-02-28T08:49:54.550Z,16.62
2023-02-28T08:52:26.129Z,26.07
2023-02-28T08:54:57.698Z,14.83
2023-02-28T08:57:29.231Z,17.60
2023-02-28T09:00:00.736Z,13.03
2023-02-28T09:02:33.767Z,14.53
2023-02-28T09:05:05.977Z,16.48
2023-02-28T09:07:37.127Z,16.90
2023-02-28T09:10:10.299Z,15.72
2023-02-28T09:12:41.870Z,17.62
2023-02-28T09:15:14.246Z,14.78
2023-02-28T09:17:47.206Z,11.60
2023-02-28T09:20:19.689Z,15.68
2023-02-28T09:22:51.171Z,16.67
2023-02-28T09:25:22.628Z,14.68
2023-02-28T09:27:54.752Z,16.25
2023-02-28T09:30:26.450Z,15.15
2023-02-28T09:32:58.012Z,17.02
2023-02-28T09:35:33.751Z,15.40
2023-02-28T09:38:08.391Z,13.83
2023-02-28T09:40:46.879Z,13.45
2023-02-28T09:43:20.149Z,14.33
2023-02-28T09:45:56.422Z,14.68
2023-02-28T09:48:31.158Z,14.07
2023-02-28T09:51:05.971Z,20.95
2023-02-28T09:53:40.808Z,14.95
2023-02-28T09:56:15.126Z,13.03
2023-02-28T09:58:49.509Z,15.43
2023-02-28T10:01:25.344Z,12.43
2023-02-28T10:04:00.812Z,18.20
2023-02-28T10:06:35.046Z,12.43
2023-02-28T10:09:10.122Z,14.93
2023-02-28T10:11:43.966Z,14.30
2023-02-28T10:14:17.772Z,14.18
2023-02-28T10:16:55.293Z,12.55
2023-02-28T10:19:32.926Z,18.12
2023-02-28T10:22:07.769Z,12.58
2023-02-28T10:24:42.200Z,18.07
2023-02-28T10:27:18.415Z,16.73
2023-02-28T10:29:57.668Z,12.78
2023-02-28T10:32:31.828Z,14.18
2023-02-28T10:35:06.620Z,16.87
2023-02-28T10:37:40.404Z,15.15
2023-02-28T10:40:28.833Z,15.28
2023-02-28T10:43:02.180Z,20.08
2023-02-28T10:45:35.850Z,18.50
2023-02-28T10:48:09.839Z,12.60
2023-02-28T10:50:46.346Z,15.55
2023-02-28T10:53:36.148Z,12.23
2023-02-28T10:56:10.198Z,14.78
2023-02-28T10:58:49.814Z,12.53
2023-02-28T11:01:23.384Z,11.25
2023-02-28T11:03:55.404Z,13.78
2023-02-28T11:06:30.051Z,15.00
2023-02-28T11:09:03.837Z,12.98
2023-02-28T11:11:44.752Z,12.18
2023-02-28T11:14:22.023Z,12.65
2023-02-28T11:16:54.908Z,11.95
2023-02-28T11:19:30.529Z,18.25
2023-02-28T11:22:05.717Z,13.65
2023-02-28T11:24:43.517Z,15.85
2023-02-28T11:27:30.879Z,14.70
2023-02-28T11:30:03.373Z,15.28
2023-02-28T11:32:38.985Z,12.88
2023-02-28T11:35:18.747Z,15.15
2023-02-28T11:37:50.684Z,13.05
2023-02-28T11:40:26.276Z,16.32
2023-02-28T11:43:09.307Z,12.58
2023-02-28T11:46:15.762Z,14.68
2023-02-28T11:48:51.515Z,12.82
2023-02-28T11:51:30.966Z,19.10
2023-02-28T11:54:11.043Z,12.65
2023-02-28T11:56:45.498Z,12.95
2023-02-28T11:59:40.377Z,17.48
2023-02-28T12:02:26.447Z,12.47
2023-02-28T12:05:27.015Z,14.98
2023-02-28T12:08:05.760Z,10.13
2023-02-28T12:10:41.285Z,12.35
2023-02-28T12:13:20.781Z,15.20
2023-02-28T12:16:06.557Z,13.68
2023-02-28T12:18:50.121Z,17.02
2023-02-28T12:21:25.648Z,18.82
2023-02-28T12:24:11.402Z,15.95
2023-02-28T12:26:45.457Z,15.05
2023-02-28T12:29:20.541Z,18.17
2023-02-28T12:31:55.004Z,18.98
2023-02-28T12:34:31.118Z,14.95
2023-02-28T12:37:15.135Z,16.60
2023-02-28T12:39:51.180Z,14.33
2023-02-28T12:42:27.014Z,15.60
2023-02-28T12:45:01.113Z,15.32
2023-02-28T12:47:32.840Z,15.80
2023-02-28T12:50:07.232Z,14.78
2023-02-28T12:52:43.806Z,16.10
2023-02-28T12:55:19.378Z,14.78
2023-02-28T12:58:11.809Z,16.00
2023-02-28T13:00:49.821Z,12.23
2023-02-28T13:03:33.825Z,13.85
2023-02-28T13:06:26.900Z,16.62
2023-02-28T13:09:06.864Z,24.55
2023-02-28T13:11:44.012Z,15.68
2023-02-28T13:14:26.740Z,18.27
2023-02-28T13:17:05.663Z,17.17
2023-02-28T13:19:40.074Z,15.43
2023-02-28T13:22:22.522Z,18.00
2023-02-28T13:24:54.732Z,18.62
2023-02-28T13:27:38.808Z,17.23
2023-02-28T13:30:44.878Z,15.50
2023-02-28T13:33:30.103Z,19.92
2023-02-28T13:36:26.220Z,18.87
2023-02-28T13:39:00.601Z,13.48
2023-02-28T13:42:09.718Z,17.32
2023-02-28T13:45:17.465Z,13.05
2023-02-28T13:47:54.382Z,15.15
2023-02-28T13:50:31.212Z,14.83
2023-02-28T13:53:49.126Z,17.92
2023-02-28T13:56:30.589Z,20.57
2023-02-28T13:59:06.133Z,16.25
2023-02-28T14:01:50.603Z,16.35
2023-02-28T14:04:47.449Z,16.30
2023-02-28T14:07:25.340Z,23.70
2023-02-28T14:10:06.352Z,17.48
2023-02-28T14:12:58.726Z,13.60
2023-02-28T14:15:49.969Z,23.80
2023-02-28T14:18:27.886Z,17.45
2023-02-28T14:21:12.236Z,14.13
2023-02-28T14:24:04.236Z,15.40
2023-02-28T14:30:16.582Z,16.02
2023-02-28T14:32:52.093Z,16.30
2023-02-28T14:35:48.043Z,18.62
2023-02-28T14:38:31.115Z,16.65
2023-02-28T14:41:07.137Z,15.40
2023-02-28T14:43:38.533Z,14.80
2023-02-28T14:46:11.567Z,15.68
2023-02-28T14:48:43.222Z,14.43
2023-02-28T14:51:17.123Z,15.05
2023-02-28T14:53:51.449Z,15.88
2023-02-28T14:56:30.938Z,15.23
2023-02-28T14:59:02.547Z,17.42
2023-02-28T15:01:34.742Z,16.75
2023-02-28T15:04:08.127Z,15.23
2023-02-28T15:06:39.563Z,16.25
2023-02-28T15:09:13.977Z,23.40
2023-02-28T15:11:48.619Z,15.72
2023-02-28T15:14:23.538Z,16.50
2023-02-28T15:16:59.141Z,18.80
2023-02-28T15:19:33.490Z,17.82
2023-02-28T15:22:08.036Z,15.32
2023-02-28T15:24:43.299Z,16.70
2023-02-28T15:27:18.147Z,20.65
2023-02-28T15:29:52.859Z,20.32
2023-02-28T15:32:29.561Z,17.73
2023-02-28T15:35:04.917Z,19.75
2023-02-28T15:37:45.449Z,21.33
2023-02-28T15:40:20.523Z,15.45
2023-02-28T15:46:02.056Z,18.05
2023-02-28T15:48:36.905Z,17.70
2023-02-28T15:51:12.505Z,18.85
2023-02-28T15:53:48.235Z,14.43
2023-02-28T15:56:26.516Z,19.65
2023-02-28T15:58:59.278Z,17.50
2023-02-28T16:01:33.147Z,29.35
2023-02-28T16:04:06.044Z,42.75
2023-02-28T16:06:40.278Z,17.52
2023-02-28T16:09:15.157Z,18.17
2023-02-28T16:11:49.247Z,17.95
2023-02-28T16:14:24.163Z,17.50
2023-02-28T16:16:57.463Z,17.10
2023-02-28T16:19:28.922Z,19.45
2023-02-28T16:22:00.610Z,18.42
2023-02-28T16:24:32.169Z,20.02
2023-02-28T16:27:04.003Z,16.57
2023-02-28T16:29:38.009Z,19.98
2023-02-28T16:35:14.434Z,20.17
2023-02-28T16:40:35.420Z,18.73
2023-02-28T16:43:10.833Z,19.15
2023-02-28T16:45:43.798Z,16.87
2023-02-28T16:48:17.836Z,20.80
2023-02-28T16:50:49.432Z,19.82
2023-02-28T16:53:20.830Z,20.55
2023-02-28T16:55:52.546Z,24.85
2023-02-28T16:58:25.596Z,21.00
2023-02-28T17:00:57.116Z,18.73
2023-02-28T17:03:33.537Z,19.70
2023-02-28T17:06:03.503Z,17.87
2023-02-28T17:08:35.986Z,18.90
2023-02-28T17:11:07.922Z,17.67
2023-02-28T17:13:39.365Z,22.30
2023-02-28T17:16:17.696Z,19.55
2023-02-28T17:18:49.175Z,21.55
2023-02-28T17:21:20.645Z,20.65
2023-02-28T17:23:52.685Z,21.30
2023-02-28T17:26:26.171Z,22.55
2023-02-28T17:28:59.427Z,22.17
2023-02-28T17:31:32.984Z,17.07
2023-02-28T17:34:04.564Z,23.90
2023-02-28T17:36:37.698Z,21.10
2023-02-28T17:39:14.722Z,20.75
2023-02-28T17:41:46.174Z,19.40
2023-02-28T17:44:18.493Z,22.52
2023-02-28T17:46:50.920Z,21.15
2023-02-28T17:49:22.787Z,22.77
2023-02-28T17:51:54.417Z,25.62
2023-02-28T17:54:25.801Z,23.32
2023-02-28T17:56:57.283Z,24.02
2023-02-28T17:59:31.598Z,22.95
2023-02-28T18:02:03.136Z,21.20
2023-02-28T18:04:34.781Z,23.00
2023-02-28T18:07:07.867Z,20.25
2023-02-28T18:09:39.250Z,21.42
2023-02-28T18:12:11.334Z,25.05
2023-02-28T18:14:43.358Z,19.62
2023-02-28T18:17:15.413Z,20.35
2023-02-28T18:19:46.785Z,18.95
2023-02-28T18:22:18.387Z,22.10
2023-02-28T18:24:49.986Z,22.02
2023-02-28T18:27:21.610Z,23.65
2023-02-28T18:29:53.285Z,24.92
2023-02-28T18:32:24.822Z,24.65
2023-02-28T18:34:56.533Z,21.52
2023-02-28T18:37:28.056Z,21.62
2023-02-28T18:39:59.603Z,26.12
2023-02-28T18:42:31.256Z,21.75
2023-02-28T18:45:05.016Z,28.07
2023-02-28T18:47:37.516Z,27.35
2023-02-28T18:50:10.792Z,24.20
2023-02-28T18:52:42.334Z,26.20
2023-02-28T18:55:16.661Z,24.65
2023-02-28T18:57:49.159Z,22.15
2023-02-28T19:00:22.919Z,26.37
2023-02-28T19:02:55.001Z,25.50
2023-02-28T19:05:30.471Z,26.37
2023-02-28T19:08:04.833Z,25.60
2023-02-28T19:10:39.226Z,21.07
2023-02-28T19:13:11.085Z,26.17
2023-02-28T19:15:44.666Z,21.95
2023-02-28T19:18:17.688Z,24.87
2023-02-28T19:21:00.253Z,21.02
2023-02-28T19:23:36.108Z,21.62
2023-02-28T19:26:12.146Z,26.75
2023-02-28T19:28:44.165Z,21.05
2023-02-28T19:31:19.350Z,25.43
2023-02-28T19:33:52.844Z,24.02
2023-02-28T19:36:29.152Z,27.00
2023-02-28T19:39:02.966Z,22.10
2023-02-28T19:41:38.239Z,26.37
2023-02-28T19:44:10.371Z,24.20
2023-02-28T19:46:44.575Z,23.62
2023-02-28T19:49:18.437Z,27.52
2023-02-28T19:51:50.532Z,23.70
2023-02-28T19:54:22.310Z,23.90
2023-02-28T19:56:56.904Z,23.40
2023-02-28T19:59:39.005Z,21.68
2023-02-28T20:02:10.258Z,24.90
2023-02-28T20:04:43.350Z,28.10
2023-02-28T20:07:20.744Z,24.12
2023-02-28T20:09:53.596Z,22.52
2023-02-28T20:12:26.224Z,25.65
2023-02-28T20:15:04.333Z,24.55
2023-02-28T20:17:37.573Z,30.02
2023-02-28T20:20:14.469Z,27.80
2023-02-28T20:22:46.314Z,26.95
2023-02-28T20:25:23.687Z,22.65
2023-02-28T20:27:55.744Z,22.40
2023-02-28T20:30:30.037Z,26.35
2023-02-28T20:33:13.456Z,27.55
2023-02-28T20:35:49.132Z,25.72
2023-02-28T20:38:21.570Z,26.45
2023-02-28T20:40:59.253Z,27.62
2023-02-28T20:43:31.002Z,24.47
2023-02-28T20:46:03.475Z,30.37
2023-02-28T20:48:37.266Z,30.85
2023-02-28T20:51:09.762Z,26.37
2023-02-28T20:53:41.531Z,27.45
2023-02-28T20:56:16.091Z,29.52
2023-02-28T20:58:50.038Z,26.57
2023-02-28T21:01:25.179Z,26.48
2023-02-28T21:03:58.323Z,25.37
2023-02-28T21:06:32.423Z,30.15
2023-02-28T21:09:06.663Z,27.10
2023-02-28T21:11:40.041Z,29.35
2023-02-28T21:14:14.625Z,34.80
2023-02-28T21:16:46.919Z,30.40
2023-02-28T21:19:18.673Z,30.27
2023-02-28T21:21:50.209Z,23.18
2023-02-28T21:24:22.104Z,30.23
2023-02-28T21:26:55.500Z,28.32
2023-02-28T21:29:30.289Z,28.15
2023-02-28T21:32:02.069Z,26.35
2023-02-28T21:34:33.472Z,26.93
2023-02-28T21:37:06.686Z,30.90
2023-02-28T21:39:37.936Z,27.87
2023-02-28T21:42:09.547Z,27.30
2023-02-28T21:44:40.994Z,30.05
2023-02-28T21:47:12.470Z,27.20
2023-02-28T21:49:44.435Z,29.42
2023-02-28T21:52:15.893Z,27.98
2023-02-28T21:54:47.512Z,26.57
2023-02-28T21:57:20.087Z,27.22
2023-02-28T21:59:51.975Z,29.75
2023-02-28T22:02:23.483Z,34.80
2023-02-28T22:04:55.361Z,33.60
2023-02-28T22:07:26.949Z,30.43
2023-02-28T22:09:58.501Z,32.63
2023-02-28T22:12:32.188Z,33.80
2023-02-28T22:15:03.661Z,32.05
2023-02-28T22:17:36.483Z,32.65
2023-02-28T22:20:09.551Z,34.88
2023-02-28T22:22:41.579Z,32.05
2023-02-28T22:25:13.234Z,34.38
2023-02-28T22:27:44.714Z,32.13
2023-02-28T22:30:29.038Z,33.83
2023-02-28T22:33:00.669Z,32.75
2023-02-28T22:35:32.123Z,34.95
2023-02-28T22:38:03.626Z,36.63
2023-02-28T22:40:35.725Z,30.72
2023-02-28T22:43:12.575Z,29.82
2023-02-28T22:45:43.915Z,32.93
2023-02-28T22:50:54.839Z,34.85
2023-02-28T22:53:26.274Z,32.90
2023-02-28T22:58:27.929Z,30.60
2023-02-28T23:01:06.538Z,31.05
2023-02-28T23:03:38.372Z,32.03
2023-02-28T23:06:16.144Z,33.88
2023-02-28T23:08:47.583Z,33.02
2023-02-28T23:11:24.825Z,33.85
2023-02-28T23:13:59.509Z,34.08
2023-02-28T23:16:34.181Z,33.28
2023-02-28T23:19:08.772Z,27.75
2023-02-28T23:21:40.733Z,33.78
2023-02-28T23:24:14.419Z,29.37
2023-02-28T23:26:47.521Z,30.50
2023-02-28T23:29:20.785Z,30.70
2023-02-28T23:31:52.748Z,27.98
2023-02-28T23:34:26.570Z,32.03
2023-02-28T23:37:00.232Z,33.55
2023-02-28T23:39:32.697Z,32.15
2023-02-28T23:42:04.429Z,28.87
2023-02-28T23:44:35.954Z,31.05
2023-02-28T23:47:07.695Z,29.67
2023-02-28T23:49:39.320Z,33.67
2023-02-28T23:52:11.773Z,36.30
2023-02-28T23:54:43.484Z,28.25
2023-02-28T23:57:15.002Z,31.82
2023-02-28T23:59:46.554Z,31.20
